Dunbarton, NH

10:11 AM EST on November 24, 2014 (GMT -0500)
Black Brook Road | Change Station
CLOSE
Current Station
Personal Weather Station
Location: Goffstown, NH
Elevation: 602 ft
Nearby Weather Stations

Elev 602 ft 43.06 °N, 71.58 °W | Updated 13 minutes ago

Overcast
Overcast
56.9 °F
Feels Like 56.9 °F
N
6.0
Wind Variable Wind from SSW
Gusts 12.0 mph

Today
High -- | Low -- °F
--% Chance of Precip.
Yesterday
High -- | Low -- °F
Precip. -- in
6:49 AM 4:15 PM
Waxing Crescent, 5% visible
Pressure 29.69 in
Visibility 5.0 miles
Clouds Overcast 800 ft
Dew Point 56 °F
Humidity 97%
Rainfall 0.46 in
Snow Depth Not available.
UV 1 out of 12
Pollen .10 out of 12
Air Quality Not available.
Flu Activity Not available.
METAR KCON 241451Z AUTO 16009G18KT 5SM -RA BR OVC008 14/13 A2968 RMK AO2 SLP053 P0003 60014 T01390133 56051

More Conditions Fewer Conditions

Pressure 29.69 in
Visibility 5.0 miles
Clouds Overcast 800 ft
Dew Point 56 °F
Humidity 97%
Rainfall 0.46 in
Snow Depth Not available.
UV 1 out of 12
Pollen .10 out of 12
Air Quality Not available.
Flu Activity Not available.
METAR KCON 241451Z AUTO 16009G18KT 5SM -RA BR OVC008 14/13 A2968 RMK AO2 SLP053 P0003 60014 T01390133 56051

More Conditions Fewer Conditions

10-Day Weather Forecast

Almanac

Astronomy

Nov. 24, 2014 Rise Set
Actual Time
Civil Twilight
Nautical Twilight
Astronomical Twilight
Moon
Length of Visible Light
Length of Day
Tomorrow will be .
, % of the Moon is Illuminated

Today's Extremes

State Highs State Lows

Community

WunderPhotos

Upload Photos

1,773,360 photos uploaded!

WunderBlogs® & News

Nearby

Air Quality

  Air Quality AQ Index Pollutant
Not available.

Snow Depth

Station Depth Elevation

Earthquake Activity

City Distance Mag. Time & Date
Minimum magnitude displayed is 2.5.

Coastal Water Temperatures

Place Temperature

Nearby Weather Stations